Time;durP1;ratioP1;P1;durP2;ratioP2;P2;SDS_P1;SDS_P2;PMS_P1;PMS_P2;Temp;Humidity;BMP_temperature;BMP_pressure;BME280_temperature;BME280_humidity;BME280_pressure;Samples;Min_cycle;Max_cycle;Signal;HPM_P1;HPM_P2
2023/06/14 00:02:20;;;;;;;6.55;4.85;;;18.20;54.80;;;;;;5067014;28;20052;-72
2023/06/14 00:04:48;;;;;;;7.43;5.20;;;18.10;55.10;;;;;;5067255;28;20375;-72
2023/06/14 00:07:16;;;;;;;9.07;5.65;;;18.10;55.10;;;;;;5067202;28;20136;-72
2023/06/14 00:09:43;;;;;;;8.02;5.60;;;18.10;55.10;;;;;;5066210;28;20059;-72
2023/06/14 00:12:10;;;;;;;8.40;5.20;;;18.10;55.20;;;;;;5071606;28;20450;-71
2023/06/14 00:14:37;;;;;;;7.18;5.45;;;18.10;55.30;;;;;;5063666;28;20048;-71
2023/06/14 00:17:04;;;;;;;9.00;5.72;;;18.00;55.40;;;;;;5066092;28;20045;-71
2023/06/14 00:19:32;;;;;;;8.30;5.35;;;18.00;55.60;;;;;;5065548;28;20044;-71
2023/06/14 00:21:59;;;;;;;7.53;5.53;;;17.90;55.80;;;;;;5067601;28;20048;-71
2023/06/14 00:24:27;;;;;;;8.50;5.82;;;17.80;55.90;;;;;;5066683;28;20052;-72
2023/06/14 00:26:55;;;;;;;7.22;5.00;;;17.90;56.10;;;;;;5064555;28;20051;-71
2023/06/14 00:29:22;;;;;;;6.78;5.00;;;17.90;56.00;;;;;;5066057;28;20044;-72
2023/06/14 00:31:48;;;;;;;8.82;5.90;;;17.80;56.00;;;;;;5066983;28;20068;-71
2023/06/14 00:34:15;;;;;;;8.60;5.25;;;17.90;56.00;;;;;;5059176;28;20049;-72
2023/06/14 00:36:42;;;;;;;9.35;5.30;;;17.90;56.10;;;;;;5065544;28;20056;-73
2023/06/14 00:39:09;;;;;;;7.60;5.40;;;17.80;55.90;;;;;;5067285;28;20049;-72
2023/06/14 00:41:38;;;;;;;5.95;4.20;;;17.80;55.80;;;;;;5066005;28;20056;-72
2023/06/14 00:44:06;;;;;;;7.70;5.20;;;17.70;55.70;;;;;;5064657;28;20076;-72
2023/06/14 00:46:33;;;;;;;6.70;4.53;;;17.70;55.90;;;;;;5066161;28;20052;-71
2023/06/14 00:49:02;;;;;;;8.25;4.68;;;17.60;56.30;;;;;;5067756;28;20044;-72
2023/06/14 00:51:29;;;;;;;8.13;4.97;;;17.60;56.20;;;;;;5068083;28;20055;-72
2023/06/14 00:53:56;;;;;;;7.85;5.18;;;17.60;56.20;;;;;;5067517;28;20462;-72
2023/06/14 00:56:24;;;;;;;7.50;4.70;;;17.60;56.40;;;;;;5053721;28;20054;-72
2023/06/14 00:58:53;;;;;;;7.30;5.30;;;17.60;56.40;;;;;;5066333;28;20450;-72
2023/06/14 01:01:20;;;;;;;8.15;5.30;;;17.60;56.60;;;;;;5068615;28;20048;-72
2023/06/14 01:03:47;;;;;;;6.90;5.20;;;17.50;56.90;;;;;;5068059;28;20052;-71
2023/06/14 01:06:26;;;;;;;6.55;4.78;;;17.40;57.00;;;;;;5066462;28;20100;-72
2023/06/14 01:09:04;;;;;;;9.40;5.20;;;17.40;56.80;;;;;;5063443;28;20056;-72
2023/06/14 01:11:36;;;;;;;6.45;5.05;;;17.40;56.60;;;;;;5066152;28;20190;-71
2023/06/14 01:14:07;;;;;;;6.53;4.60;;;17.40;56.90;;;;;;5064542;28;20623;-72
2023/06/14 01:16:36;;;;;;;8.35;4.68;;;17.30;56.90;;;;;;5065671;28;20059;-71
2023/06/14 01:19:03;;;;;;;8.18;4.57;;;17.20;57.10;;;;;;5066414;28;20123;-72
2023/06/14 01:21:30;;;;;;;8.40;5.38;;;17.20;57.10;;;;;;5067491;28;20091;-71
2023/06/14 01:23:58;;;;;;;7.05;4.72;;;17.20;57.20;;;;;;5066372;28;20479;-72
2023/06/14 01:26:28;;;;;;;6.95;4.97;;;17.20;57.40;;;;;;5065448;28;20132;-72
2023/06/14 01:28:58;;;;;;;7.35;4.80;;;17.10;57.50;;;;;;5073721;28;20044;-72
2023/06/14 01:31:25;;;;;;;10.68;4.80;;;17.10;57.40;;;;;;5082955;28;20049;-72
2023/06/14 01:33:54;;;;;;;8.98;5.18;;;17.10;57.50;;;;;;5065482;28;20147;-72
2023/06/14 01:36:28;;;;;;;7.60;4.78;;;17.10;57.80;;;;;;5037871;28;20099;-72
2023/06/14 01:39:00;;;;;;;8.23;4.80;;;17.10;57.90;;;;;;5076372;28;20057;-72
2023/06/14 01:41:27;;;;;;;;;;;17.00;58.20;;;;;;5062383;28;20509;-72
2023/06/14 01:43:56;;;;;;;7.30;5.05;;;17.00;58.20;;;;;;5086222;28;20165;-72
2023/06/14 01:46:24;;;;;;;8.68;5.05;;;17.00;58.10;;;;;;5053770;28;20040;-72
2023/06/14 01:48:51;;;;;;;6.43;4.82;;;17.00;58.00;;;;;;5061202;28;20036;-72
2023/06/14 01:51:18;;;;;;;7.68;4.97;;;16.90;57.90;;;;;;5057272;28;20056;-72
2023/06/14 01:53:46;;;;;;;6.60;4.70;;;16.80;58.00;;;;;;5065119;28;20052;-72
2023/06/14 01:56:15;;;;;;;11.35;4.90;;;16.80;58.20;;;;;;5066725;28;20483;-72
2023/06/14 01:58:42;;;;;;;7.05;4.65;;;16.70;58.40;;;;;;5065304;28;20052;-72
2023/06/14 02:01:08;;;;;;;8.98;4.80;;;16.60;58.70;;;;;;5067614;28;20056;-72
2023/06/14 02:03:37;;;;;;;6.55;4.90;;;16.60;58.80;;;;;;5064798;28;20074;-72
2023/06/14 02:06:04;;;;;;;7.60;5.18;;;16.60;58.90;;;;;;5066190;28;20135;-72
2023/06/14 02:08:31;;;;;;;8.13;5.10;;;16.60;59.20;;;;;;5063142;28;20098;-72
2023/06/14 02:11:01;;;;;;;8.73;4.80;;;16.60;59.10;;;;;;5066656;28;20598;-71
2023/06/14 02:13:29;;;;;;;9.38;5.53;;;16.60;59.20;;;;;;5071501;28;20423;-72
2023/06/14 02:15:57;;;;;;;6.97;4.95;;;16.60;59.20;;;;;;5067062;28;20044;-72
2023/06/14 02:18:24;;;;;;;6.68;4.50;;;16.50;59.10;;;;;;5060793;28;20064;-71
2023/06/14 02:20:51;;;;;;;8.35;5.40;;;16.50;59.00;;;;;;5055127;28;20059;-72
2023/06/14 02:23:18;;;;;;;7.03;5.05;;;16.50;58.80;;;;;;5062240;28;20040;-72
2023/06/14 02:25:45;;;;;;;7.28;5.20;;;16.60;58.60;;;;;;5062861;28;20562;-71
2023/06/14 02:28:12;;;;;;;6.68;4.38;;;16.50;58.50;;;;;;5054976;28;20044;-71
2023/06/14 02:30:41;;;;;;;8.48;5.47;;;16.40;58.80;;;;;;5066213;28;20100;-70
2023/06/14 02:33:12;;;;;;;7.88;4.93;;;16.40;59.10;;;;;;5067353;28;20090;-72
2023/06/14 02:35:40;;;;;;;8.10;4.90;;;16.30;59.50;;;;;;5079958;28;20052;-72
2023/06/14 02:38:07;;;;;;;7.63;5.25;;;16.30;59.70;;;;;;5062906;28;20052;-71
2023/06/14 02:40:34;;;;;;;8.57;4.88;;;16.20;59.90;;;;;;5061884;28;20052;-71
2023/06/14 02:43:01;;;;;;;8.82;5.07;;;16.20;60.00;;;;;;5067082;28;20055;-71
2023/06/14 02:45:28;;;;;;;7.97;5.18;;;16.20;60.10;;;;;;5064290;28;20117;-72
2023/06/14 02:47:56;;;;;;;8.02;4.90;;;16.10;60.20;;;;;;5065486;28;20049;-71
2023/06/14 02:50:23;;;;;;;7.97;5.32;;;16.20;60.20;;;;;;5065729;28;20055;-71
2023/06/14 02:52:52;;;;;;;8.13;5.35;;;16.10;60.30;;;;;;5055897;28;20135;-72
2023/06/14 02:55:19;;;;;;;9.93;5.40;;;16.10;60.30;;;;;;5065574;28;20053;-72
2023/06/14 02:57:47;;;;;;;8.98;5.28;;;16.10;60.30;;;;;;5063423;28;20450;-72
2023/06/14 03:00:15;;;;;;;7.90;5.20;;;16.10;60.40;;;;;;5062973;28;20090;-72
2023/06/14 03:02:44;;;;;;;8.50;5.35;;;16.10;60.50;;;;;;5063986;28;20067;-71
2023/06/14 03:05:12;;;;;;;8.43;4.90;;;16.00;60.40;;;;;;5063481;28;20132;-71
2023/06/14 03:07:40;;;;;;;6.53;4.45;;;15.90;60.40;;;;;;5060275;28;20103;-72
2023/06/14 03:10:10;;;;;;;6.38;4.60;;;15.90;60.70;;;;;;5063337;28;20055;-72
2023/06/14 03:12:37;;;;;;;6.65;4.53;;;15.80;60.70;;;;;;5063057;28;20048;-71
2023/06/14 03:15:05;;;;;;;7.00;4.80;;;15.80;60.80;;;;;;5059747;28;20056;-71
2023/06/14 03:17:38;;;;;;;7.93;4.50;;;15.70;60.80;;;;;;5061265;28;20423;-71
2023/06/14 03:20:08;;;;;;;8.13;4.65;;;15.60;61.00;;;;;;5057705;28;20044;-70
2023/06/14 03:22:37;;;;;;;7.07;4.78;;;15.70;60.90;;;;;;5064255;28;20080;-72
2023/06/14 03:25:05;;;;;;;6.95;4.63;;;15.70;61.10;;;;;;5062629;28;20052;-71
2023/06/14 03:27:35;;;;;;;6.90;4.82;;;15.60;61.30;;;;;;5062460;28;20049;-71
2023/06/14 03:30:03;;;;;;;6.88;4.88;;;15.60;61.30;;;;;;5081044;28;20048;-71
2023/06/14 03:32:33;;;;;;;7.47;4.82;;;15.60;61.30;;;;;;5062610;28;20056;-70
2023/06/14 03:35:00;;;;;;;7.65;5.18;;;15.60;61.30;;;;;;5079505;28;20116;-71
2023/06/14 03:37:27;;;;;;;8.60;4.95;;;15.50;61.40;;;;;;5063304;28;20045;-70
2023/06/14 03:39:55;;;;;;;7.22;4.80;;;15.50;61.40;;;;;;5063272;28;20041;-72
2023/06/14 03:42:24;;;;;;;9.48;4.82;;;15.60;61.30;;;;;;5065147;28;20067;-72
2023/06/14 03:44:51;;;;;;;6.63;4.22;;;15.50;61.30;;;;;;5067869;28;20387;-71
2023/06/14 03:47:21;;;;;;;7.85;4.95;;;15.60;61.50;;;;;;5067285;28;20055;-70
2023/06/14 03:49:48;;;;;;;8.13;4.80;;;15.50;61.60;;;;;;5068454;28;20048;-72
2023/06/14 03:52:16;;;;;;;7.18;4.78;;;15.40;61.80;;;;;;5066779;28;20045;-71
2023/06/14 03:54:46;;;;;;;8.43;5.15;;;15.50;61.90;;;;;;5067777;28;20052;-71
2023/06/14 03:57:16;;;;;;;6.95;4.43;;;15.50;62.20;;;;;;5057730;28;20049;-71
2023/06/14 03:59:44;;;;;;;8.65;5.18;;;15.50;62.30;;;;;;5084048;28;20079;-70
2023/06/14 04:02:15;;;;;;;7.60;4.88;;;15.50;62.40;;;;;;5067536;28;20429;-71
2023/06/14 04:04:44;;;;;;;7.82;4.65;;;15.50;62.50;;;;;;5066539;28;20586;-71
2023/06/14 04:07:11;;;;;;;6.82;4.63;;;15.60;62.60;;;;;;5066809;28;20384;-71
2023/06/14 04:09:38;;;;;;;8.52;5.38;;;15.60;62.30;;;;;;5065571;28;20055;-72
2023/06/14 04:12:08;;;;;;;8.93;5.28;;;15.60;62.50;;;;;;5068897;28;20139;-72
2023/06/14 04:14:36;;;;;;;8.45;5.28;;;15.60;62.30;;;;;;5066540;28;20080;-72
2023/06/14 04:17:04;;;;;;;7.68;4.97;;;15.60;62.30;;;;;;5066175;28;20155;-72
2023/06/14 04:19:31;;;;;;;8.45;5.38;;;15.60;62.60;;;;;;5082428;28;20071;-71
2023/06/14 04:22:01;;;;;;;9.32;5.07;;;15.70;62.60;;;;;;5067312;28;20040;-71
2023/06/14 04:24:31;;;;;;;7.90;5.22;;;15.60;62.70;;;;;;5065521;28;20051;-71
2023/06/14 04:27:01;;;;;;;7.78;4.93;;;15.60;62.70;;;;;;5081014;28;20124;-71
2023/06/14 04:29:29;;;;;;;7.72;4.55;;;15.70;62.50;;;;;;5067060;28;20412;-71
2023/06/14 04:32:02;;;;;;;8.40;5.30;;;15.70;62.40;;;;;;5065499;28;20599;-71
2023/06/14 04:34:31;;;;;;;7.75;4.85;;;15.70;62.60;;;;;;5067206;28;20486;-71
2023/06/14 04:36:59;;;;;;;9.43;5.15;;;15.70;62.60;;;;;;5066039;28;20064;-71
2023/06/14 04:39:37;;;;;;;8.80;5.00;;;15.70;62.70;;;;;;5065829;28;20045;-71
2023/06/14 04:42:07;;;;;;;9.52;4.65;;;15.80;62.30;;;;;;5067565;28;20649;-70
2023/06/14 04:44:35;;;;;;;7.47;5.13;;;15.90;61.50;;;;;;5066722;28;20594;-71
2023/06/14 04:47:06;;;;;;;7.53;5.03;;;16.00;61.10;;;;;;5066469;28;20045;-72
2023/06/14 04:49:33;;;;;;;8.10;5.40;;;16.10;60.90;;;;;;5069215;28;20399;-72
2023/06/14 04:52:01;;;;;;;6.78;4.80;;;16.10;61.00;;;;;;5071468;28;20128;-71
2023/06/14 04:54:41;;;;;;;7.45;4.75;;;16.10;60.90;;;;;;5065697;28;20048;-71
2023/06/14 04:57:14;;;;;;;8.35;4.55;;;16.10;60.60;;;;;;5066270;28;20067;-72
2023/06/14 04:59:43;;;;;;;8.77;5.15;;;16.20;60.90;;;;;;5062899;28;20050;-70
2023/06/14 05:02:12;;;;;;;7.55;4.57;;;16.20;61.30;;;;;;5079478;28;20040;-70
2023/06/14 05:04:40;;;;;;;9.32;4.50;;;16.20;61.80;;;;;;5067591;28;20052;-71
2023/06/14 05:07:08;;;;;;;7.63;4.78;;;16.20;61.90;;;;;;5067824;28;20068;-71
2023/06/14 05:09:37;;;;;;;7.47;4.32;;;16.20;62.30;;;;;;5067314;28;20126;-71
2023/06/14 05:12:07;;;;;;;8.50;4.68;;;16.30;62.00;;;;;;5067691;28;20545;-71
2023/06/14 05:14:34;;;;;;;7.55;4.72;;;16.30;61.80;;;;;;5066458;28;20100;-71
2023/06/14 05:17:02;;;;;;;8.60;4.35;;;16.30;62.10;;;;;;5073756;28;20048;-71
2023/06/14 05:19:30;;;;;;;8.73;4.70;;;16.30;61.80;;;;;;5067955;28;20423;-70
2023/06/14 05:21:58;;;;;;;6.90;4.65;;;16.40;61.50;;;;;;5067380;28;20045;-71
2023/06/14 05:24:25;;;;;;;5.55;4.10;;;16.40;61.30;;;;;;5066919;28;20057;-72
2023/06/14 05:26:52;;;;;;;8.50;4.43;;;16.40;61.30;;;;;;5066980;28;20210;-71
2023/06/14 05:29:19;;;;;;;5.78;4.05;;;16.40;61.60;;;;;;5067482;28;20130;-71
2023/06/14 05:31:45;;;;;;;6.32;4.60;;;16.50;61.60;;;;;;5067320;28;20040;-71
2023/06/14 05:34:12;;;;;;;6.70;4.55;;;16.60;61.30;;;;;;5066508;28;20051;-71
2023/06/14 05:36:40;;;;;;;6.95;4.25;;;16.60;61.00;;;;;;5066403;28;20048;-70
2023/06/14 05:39:08;;;;;;;7.18;3.92;;;16.60;60.80;;;;;;5062798;28;20061;-72
2023/06/14 05:41:35;;;;;;;6.22;4.45;;;16.60;60.30;;;;;;5066545;28;20483;-72
2023/06/14 05:44:02;;;;;;;7.28;4.35;;;16.60;60.20;;;;;;5065770;28;20048;-71
2023/06/14 05:46:29;;;;;;;8.30;4.70;;;16.60;60.20;;;;;;5060577;28;20052;-70
2023/06/14 05:48:56;;;;;;;7.90;4.05;;;16.60;60.00;;;;;;5062265;28;20421;-71
2023/06/14 05:51:25;;;;;;;7.22;4.40;;;16.60;59.50;;;;;;5066675;28;20076;-72
2023/06/14 05:53:54;;;;;;;7.53;4.60;;;16.70;59.50;;;;;;5066681;28;20052;-72
2023/06/14 05:56:21;;;;;;;6.88;4.00;;;16.70;59.60;;;;;;5068465;28;20707;-71
2023/06/14 05:58:48;;;;;;;6.35;3.88;;;16.70;59.30;;;;;;5061999;28;20055;-71
2023/06/14 06:01:15;;;;;;;7.72;4.13;;;16.80;59.30;;;;;;5065649;28;20049;-71
2023/06/14 06:03:45;;;;;;;7.15;3.72;;;16.80;58.90;;;;;;5066356;28;20080;-71
2023/06/14 06:06:12;;;;;;;6.90;4.25;;;16.80;59.20;;;;;;5066461;28;20048;-71
2023/06/14 06:08:40;;;;;;;6.03;3.95;;;16.90;59.10;;;;;;5066617;28;20048;-72
2023/06/14 06:11:08;;;;;;;6.43;3.95;;;16.90;59.20;;;;;;5065399;28;20040;-71
2023/06/14 06:13:35;;;;;;;6.50;3.47;;;16.90;59.10;;;;;;5065712;28;20055;-72
2023/06/14 06:16:03;;;;;;;6.13;3.97;;;16.90;59.00;;;;;;5065567;28;20209;-72
2023/06/14 06:18:29;;;;;;;7.85;4.00;;;17.10;59.10;;;;;;5066330;28;20503;-71
2023/06/14 06:20:56;;;;;;;6.15;3.53;;;17.10;58.80;;;;;;5066720;28;20973;-71
2023/06/14 06:23:23;;;;;;;6.55;3.70;;;17.20;58.60;;;;;;5065257;28;20495;-71
2023/06/14 06:25:50;;;;;;;6.63;3.90;;;17.20;58.50;;;;;;5066062;28;20055;-72
2023/06/14 06:28:18;;;;;;;7.60;3.83;;;17.30;58.40;;;;;;5063632;28;20645;-72
2023/06/14 06:30:45;;;;;;;5.53;3.70;;;17.40;58.40;;;;;;5067285;28;20056;-72
2023/06/14 06:33:13;;;;;;;7.32;3.55;;;17.60;58.10;;;;;;5065508;28;20048;-71
2023/06/14 06:35:40;;;;;;;5.97;3.60;;;17.70;57.70;;;;;;5066661;28;20048;-71
2023/06/14 06:38:08;;;;;;;8.73;3.95;;;17.80;57.40;;;;;;5065498;28;20395;-71
2023/06/14 06:40:35;;;;;;;5.93;3.80;;;18.00;57.00;;;;;;5062302;28;20136;-70
2023/06/14 06:43:03;;;;;;;6.07;3.40;;;18.20;56.70;;;;;;5064314;28;20063;-70
2023/06/14 06:45:31;;;;;;;6.10;3.60;;;18.30;56.50;;;;;;5066255;28;20080;-70
2023/06/14 06:47:58;;;;;;;6.15;3.60;;;18.40;56.00;;;;;;5064857;28;20053;-71
2023/06/14 06:50:25;;;;;;;7.07;3.35;;;18.50;56.00;;;;;;5066031;28;20121;-71
2023/06/14 06:52:52;;;;;;;5.00;3.28;;;18.70;55.90;;;;;;5065730;28;20048;-71
2023/06/14 06:55:20;;;;;;;4.78;3.25;;;18.90;55.50;;;;;;5066467;28;20048;-71
2023/06/14 06:57:46;;;;;;;5.95;3.45;;;19.00;55.00;;;;;;5064554;28;20048;-70
2023/06/14 07:00:14;;;;;;;6.40;3.25;;;19.20;54.40;;;;;;5065620;28;20040;-71
2023/06/14 07:02:42;;;;;;;4.63;2.90;;;19.30;54.20;;;;;;5066631;28;20411;-71
2023/06/14 07:05:09;;;;;;;7.13;3.65;;;19.50;53.90;;;;;;5066201;28;20044;-70
2023/06/14 07:07:36;;;;;;;6.88;3.30;;;19.60;53.50;;;;;;5066248;28;20063;-71
2023/06/14 07:10:04;;;;;;;6.05;3.08;;;19.80;53.40;;;;;;5061905;28;20708;-70
2023/06/14 07:12:33;;;;;;;5.50;3.13;;;20.00;53.00;;;;;;5065338;28;20127;-70
2023/06/14 07:15:00;;;;;;;4.63;3.10;;;20.10;52.80;;;;;;5066695;28;20110;-71
2023/06/14 07:17:29;;;;;;;5.03;3.17;;;20.20;52.50;;;;;;5064721;28;20044;-72
2023/06/14 07:19:58;;;;;;;5.35;3.17;;;20.40;52.20;;;;;;5068506;28;20468;-71
2023/06/14 07:22:24;;;;;;;7.53;3.45;;;20.60;51.60;;;;;;5070447;28;20464;-71
2023/06/14 07:24:53;;;;;;;6.00;3.30;;;20.70;51.30;;;;;;5072997;28;20380;-72
2023/06/14 07:27:20;;;;;;;4.72;3.10;;;20.70;51.70;;;;;;5082260;28;20128;-72
2023/06/14 07:29:47;;;;;;;7.20;2.95;;;20.90;51.20;;;;;;5077002;28;20052;-72
2023/06/14 07:32:14;;;;;;;4.93;3.05;;;21.00;51.40;;;;;;5065401;28;20486;-73
2023/06/14 07:34:41;;;;;;;4.43;2.80;;;21.10;50.90;;;;;;5070034;28;20094;-72
2023/06/14 07:37:09;;;;;;;5.75;2.90;;;21.30;50.90;;;;;;5069587;28;20048;-72
2023/06/14 07:39:36;;;;;;;4.82;2.95;;;21.30;50.50;;;;;;5068655;28;20055;-71
2023/06/14 07:42:03;;;;;;;4.97;2.80;;;21.60;50.20;;;;;;5069415;28;20055;-71
2023/06/14 07:44:31;;;;;;;5.00;2.80;;;21.60;49.50;;;;;;5068426;28;20096;-72
2023/06/14 07:46:59;;;;;;;4.55;3.03;;;21.60;49.90;;;;;;5068442;28;20053;-73
2023/06/14 07:49:26;;;;;;;3.85;2.65;;;21.80;49.60;;;;;;5070069;28;20072;-73
2023/06/14 07:51:53;;;;;;;4.32;2.63;;;22.00;48.90;;;;;;5067915;28;20046;-77
2023/06/14 07:54:24;;;;;;;5.20;2.78;;;22.10;48.70;;;;;;5069065;28;20046;-76
2023/06/14 07:56:51;;;;;;;7.07;2.90;;;22.20;48.60;;;;;;5067911;28;20047;-76
2023/06/14 07:59:18;;;;;;;8.98;2.85;;;22.40;48.00;;;;;;5074871;28;20074;-76
2023/06/14 08:01:47;;;;;;;4.18;2.67;;;22.50;47.40;;;;;;5064224;28;20049;-61
2023/06/14 08:04:15;;;;;;;3.50;2.13;;;22.60;47.30;;;;;;5067290;28;20059;-62
2023/06/14 08:06:43;;;;;;;5.00;2.50;;;22.70;47.30;;;;;;5068019;28;20064;-79
2023/06/14 08:09:11;;;;;;;4.20;2.45;;;22.80;46.90;;;;;;5070453;28;20053;-78
2023/06/14 08:11:39;;;;;;;4.20;2.35;;;23.00;46.40;;;;;;5068762;28;20550;-79
2023/06/14 08:14:06;;;;;;;6.40;2.63;;;23.10;46.00;;;;;;5069778;28;20576;-78
2023/06/14 08:16:33;;;;;;;6.20;2.80;;;23.30;45.80;;;;;;5064519;28;20056;-70
2023/06/14 08:19:00;;;;;;;4.43;2.33;;;23.30;45.40;;;;;;5067842;28;20831;-69
2023/06/14 08:21:28;;;;;;;3.83;2.58;;;23.20;45.50;;;;;;5067011;28;20048;-62
2023/06/14 08:23:55;;;;;;;6.35;2.47;;;23.30;45.30;;;;;;5066378;28;20056;-62
2023/06/14 08:26:22;;;;;;;3.33;2.00;;;23.50;44.80;;;;;;5066281;28;20045;-77
2023/06/14 08:28:51;;;;;;;4.63;2.40;;;23.70;44.60;;;;;;5065965;28;20054;-77
2023/06/14 08:31:18;;;;;;;5.28;2.40;;;23.70;44.10;;;;;;5067022;28;20095;-78
2023/06/14 08:33:45;;;;;;;3.63;1.98;;;23.60;43.80;;;;;;5068949;28;20048;-77
2023/06/14 08:36:12;;;;;;;3.05;1.90;;;23.50;44.20;;;;;;5068092;28;20121;-67
2023/06/14 08:38:39;;;;;;;4.30;1.75;;;23.10;44.10;;;;;;5060749;28;20036;-68
2023/06/14 08:41:07;;;;;;;4.53;2.10;;;22.80;44.20;;;;;;5065713;28;20044;-66
2023/06/14 08:43:34;;;;;;;4.00;2.30;;;22.50;44.40;;;;;;5068158;28;20060;-66
2023/06/14 08:46:05;;;;;;;3.95;1.90;;;22.60;43.80;;;;;;5067756;28;20066;-69
2023/06/14 08:48:33;;;;;;;5.57;1.75;;;22.90;43.50;;;;;;5068808;28;20460;-69
2023/06/14 08:51:03;;;;;;;3.97;1.77;;;23.30;43.20;;;;;;5066755;28;20047;-66
2023/06/14 08:53:33;;;;;;;4.78;1.90;;;23.60;42.70;;;;;;5067370;28;20123;-66
2023/06/14 08:56:01;;;;;;;3.17;2.00;;;23.90;42.80;;;;;;5064385;28;20056;-74
2023/06/14 08:58:31;;;;;;;3.22;1.85;;;24.20;42.20;;;;;;5068424;28;20513;-74
2023/06/14 09:00:59;;;;;;;2.78;1.67;;;24.20;42.50;;;;;;5067983;28;20537;-62
2023/06/14 09:03:29;;;;;;;5.85;1.75;;;23.90;42.20;;;;;;5067186;28;20123;-61
2023/06/14 09:06:00;;;;;;;3.03;1.77;;;23.70;41.70;;;;;;5063213;28;20059;-69
2023/06/14 09:08:30;;;;;;;2.10;1.45;;;23.60;42.00;;;;;;5066192;28;20135;-69
2023/06/14 09:10:57;;;;;;;2.78;1.90;;;23.40;42.60;;;;;;5061665;28;20044;-77
2023/06/14 09:13:24;;;;;;;2.90;1.63;;;23.30;42.40;;;;;;5066837;28;20090;-77
2023/06/14 09:15:51;;;;;;;2.72;1.65;;;23.50;42.00;;;;;;5067987;28;20044;-62
2023/06/14 09:18:20;;;;;;;3.38;1.85;;;23.60;42.30;;;;;;5065360;28;20052;-62
2023/06/14 09:20:48;;;;;;;3.83;1.95;;;23.60;42.30;;;;;;5062208;28;20072;-68
2023/06/14 09:23:22;;;;;;;3.60;2.15;;;23.50;42.00;;;;;;5068286;28;20564;-68
2023/06/14 09:25:49;;;;;;;3.13;1.90;;;23.50;42.00;;;;;;5064505;28;20056;-73
2023/06/14 09:28:16;;;;;;;2.90;1.60;;;23.30;42.30;;;;;;5066291;28;20044;-73
2023/06/14 09:30:43;;;;;;;4.20;1.60;;;23.40;42.30;;;;;;5065731;28;20052;-69
2023/06/14 09:33:10;;;;;;;4.93;2.30;;;23.90;42.40;;;;;;5066046;28;20051;-69
2023/06/14 09:35:37;;;;;;;2.92;1.80;;;24.10;42.30;;;;;;5066073;28;20056;-69
2023/06/14 09:38:06;;;;;;;3.63;2.03;;;24.00;41.70;;;;;;5061609;28;20931;-68
2023/06/14 09:40:36;;;;;;;3.63;2.20;;;23.90;41.70;;;;;;5063838;28;20122;-71
2023/06/14 09:43:07;;;;;;;3.85;2.05;;;23.80;41.70;;;;;;5066844;28;20056;-70
2023/06/14 09:45:34;;;;;;;5.45;2.13;;;24.00;42.20;;;;;;5060312;28;20120;-75
2023/06/14 09:48:02;;;;;;;3.97;2.03;;;24.10;42.10;;;;;;5064596;28;20060;-79
2023/06/14 09:50:29;;;;;;;4.20;2.35;;;24.10;41.70;;;;;;5066846;28;20488;-74
2023/06/14 09:53:03;;;;;;;4.03;1.95;;;24.10;41.60;;;;;;5067267;28;20052;-78
2023/06/14 09:55:35;;;;;;;3.80;2.20;;;24.00;41.60;;;;;;5060638;28;20078;-65
2023/06/14 09:58:06;;;;;;;3.38;2.30;;;24.00;41.70;;;;;;5065112;28;20118;-65
2023/06/14 10:00:34;;;;;;;3.78;2.47;;;24.20;41.10;;;;;;5063934;28;20048;-71
2023/06/14 10:03:07;;;;;;;5.25;2.80;;;24.10;41.50;;;;;;5081885;28;20055;-69
2023/06/14 10:05:37;;;;;;;5.72;2.63;;;24.30;41.50;;;;;;5068798;28;20056;-70
2023/06/14 10:08:09;;;;;;;5.00;2.60;;;24.80;41.00;;;;;;5062715;28;20056;-70
2023/06/14 10:10:40;;;;;;;4.55;2.42;;;24.80;40.00;;;;;;5061653;28;20057;-78
2023/06/14 10:13:07;;;;;;;3.28;1.95;;;24.60;40.20;;;;;;5067528;28;21318;-78
2023/06/14 10:15:41;;;;;;;4.25;2.30;;;24.50;40.30;;;;;;5064744;28;20049;-61
2023/06/14 10:18:20;;;;;;;3.53;2.08;;;24.80;40.40;;;;;;5067182;28;20052;-61
2023/06/14 10:20:56;;;;;;;4.15;2.15;;;24.90;40.10;;;;;;5064764;28;20045;-73
2023/06/14 10:23:25;;;;;;;4.07;2.30;;;24.90;39.70;;;;;;5066981;28;20500;-74
2023/06/14 10:25:57;;;;;;;4.57;2.33;;;24.80;39.50;;;;;;5064164;28;20513;-78
2023/06/14 10:28:24;;;;;;;3.70;2.17;;;24.90;39.70;;;;;;5066329;28;20143;-78
2023/06/14 10:31:05;;;;;;;4.25;2.20;;;25.20;39.60;;;;;;5063099;28;20052;-78
2023/06/14 10:33:33;;;;;;;3.88;2.25;;;25.50;39.60;;;;;;5061303;28;20412;-79
2023/06/14 10:36:25;;;;;;;4.97;2.28;;;25.60;39.70;;;;;;5065043;28;20040;-66
2023/06/14 10:38:58;;;;;;;3.97;2.30;;;25.90;39.50;;;;;;5071139;28;20502;-66
2023/06/14 10:41:28;;;;;;;5.22;2.33;;;26.00;39.10;;;;;;5073601;28;20050;-66
2023/06/14 10:44:26;;;;;;;4.93;2.22;;;25.90;39.00;;;;;;5063651;28;20067;-66
2023/06/14 10:46:54;;;;;;;4.75;2.10;;;25.50;38.70;;;;;;5059550;28;20064;-66
2023/06/14 10:49:38;;;;;;;5.60;2.05;;;25.50;38.20;;;;;;5067446;28;20053;-66
2023/06/14 10:52:06;;;;;;;3.35;2.17;;;25.60;38.10;;;;;;5068446;28;20514;-74
2023/06/14 10:54:33;;;;;;;5.18;3.30;;;26.00;38.30;;;;;;5068698;28;20134;-72
2023/06/14 10:57:01;;;;;;;6.50;4.50;;;26.20;38.20;;;;;;5069392;28;20381;-73
2023/06/14 10:59:28;;;;;;;6.20;4.85;;;26.30;37.50;;;;;;5069573;28;20044;-73
2023/06/14 11:02:07;;;;;;;6.18;4.30;;;26.10;37.60;;;;;;5071293;28;20044;-73
2023/06/14 11:04:48;;;;;;;7.60;4.85;;;26.00;36.90;;;;;;5069132;28;20052;-73
2023/06/14 11:07:39;;;;;;;5.88;3.88;;;25.80;36.90;;;;;;5066770;28;20411;-73
2023/06/14 11:10:22;;;;;;;6.30;3.60;;;25.70;37.20;;;;;;5069414;28;20045;-72
2023/06/14 11:12:54;;;;;;;5.03;3.15;;;25.70;37.40;;;;;;5071868;28;20057;-72
2023/06/14 11:15:21;;;;;;;4.07;2.38;;;25.60;37.40;;;;;;5076650;28;20534;-72
2023/06/14 11:17:53;;;;;;;3.38;2.05;;;25.70;37.10;;;;;;5069402;28;20045;-73
2023/06/14 11:20:20;;;;;;;2.90;1.98;;;25.80;37.10;;;;;;5070203;28;20090;-66
2023/06/14 11:22:48;;;;;;;3.35;2.05;;;26.00;36.60;;;;;;5067253;28;20139;-66
2023/06/14 11:25:15;;;;;;;5.25;2.63;;;25.90;35.80;;;;;;5069235;28;20048;-66
2023/06/14 11:27:43;;;;;;;5.50;2.72;;;26.00;35.80;;;;;;5070027;28;20052;-65
2023/06/14 11:30:12;;;;;;;3.95;2.50;;;26.00;35.90;;;;;;5069035;28;20040;-65
2023/06/14 11:32:40;;;;;;;5.47;2.67;;;25.90;36.20;;;;;;5068173;28;20045;-66
2023/06/14 11:35:09;;;;;;;4.20;2.20;;;25.80;35.70;;;;;;5069037;28;20056;-66
2023/06/14 11:37:38;;;;;;;3.75;2.20;;;25.60;35.70;;;;;;5066407;28;20484;-65
2023/06/14 11:40:09;;;;;;;2.55;1.70;;;25.60;35.80;;;;;;5069721;28;20438;-66
2023/06/14 11:42:37;;;;;;;2.92;1.90;;;25.90;35.70;;;;;;5069034;28;20136;-66
2023/06/14 11:45:05;;;;;;;3.50;2.03;;;26.00;35.50;;;;;;5069403;28;20056;-65
2023/06/14 11:47:38;;;;;;;4.30;1.93;;;26.00;35.10;;;;;;5063674;28;20086;-65
2023/06/14 11:50:06;;;;;;;5.05;2.50;;;25.90;34.80;;;;;;5068908;28;20467;-66
2023/06/14 11:52:34;;;;;;;3.60;2.22;;;25.80;35.60;;;;;;5066908;28;20056;-66
2023/06/14 11:55:04;;;;;;;4.13;2.42;;;25.80;35.50;;;;;;5068607;28;20060;-65
2023/06/14 11:57:31;;;;;;;4.60;2.70;;;26.00;35.40;;;;;;5068963;28;20048;-66
2023/06/14 11:59:58;;;;;;;5.88;2.75;;;26.00;34.80;;;;;;5067725;28;20052;-66
2023/06/14 12:02:27;;;;;;;4.60;3.22;;;26.10;35.10;;;;;;5067912;28;20110;-65
2023/06/14 12:04:57;;;;;;;3.97;2.50;;;26.10;35.50;;;;;;5068419;28;20094;-66
2023/06/14 12:07:25;;;;;;;3.50;2.50;;;26.00;35.40;;;;;;5066089;28;20047;-67
2023/06/14 12:10:10;;;;;;;4.30;2.73;;;26.00;35.10;;;;;;5070467;28;20068;-67
2023/06/14 12:12:38;;;;;;;3.92;2.65;;;26.00;35.60;;;;;;5084796;28;20044;-66
2023/06/14 12:15:07;;;;;;;4.18;2.42;;;25.90;36.00;;;;;;5088674;28;20047;-66
2023/06/14 12:17:35;;;;;;;4.40;2.90;;;25.90;36.10;;;;;;5086329;28;20063;-65
2023/06/14 12:20:10;;;;;;;4.40;2.33;;;26.00;36.80;;;;;;5077292;28;20108;-65
2023/06/14 12:22:38;;;;;;;4.97;2.42;;;25.80;37.80;;;;;;5067203;28;20055;-66
2023/06/14 12:25:05;;;;;;;4.00;2.20;;;25.70;37.70;;;;;;5066694;28;20130;-66
2023/06/14 12:27:33;;;;;;;4.25;2.58;;;25.60;37.80;;;;;;5079185;28;20063;-66
2023/06/14 12:30:03;;;;;;;3.75;2.45;;;25.50;38.00;;;;;;5077745;28;20044;-65
2023/06/14 12:32:30;;;;;;;5.28;2.30;;;25.40;38.40;;;;;;5074755;28;20134;-67
2023/06/14 12:34:57;;;;;;;2.88;2.08;;;25.30;38.50;;;;;;5088020;28;20098;-64
2023/06/14 12:37:25;;;;;;;3.78;2.33;;;25.30;38.30;;;;;;5078937;28;20054;-66
2023/06/14 12:39:52;;;;;;;3.97;1.95;;;25.30;38.00;;;;;;5093246;28;20044;-64
2023/06/14 12:42:19;;;;;;;3.67;2.10;;;25.40;37.90;;;;;;5089671;28;20040;-68
2023/06/14 12:44:45;;;;;;;3.03;2.08;;;25.50;38.10;;;;;;5088254;28;20040;-68
2023/06/14 12:47:12;;;;;;;3.80;2.45;;;25.80;38.00;;;;;;5064167;28;20671;-62
2023/06/14 12:49:41;;;;;;;5.18;2.45;;;25.90;37.80;;;;;;5086730;28;20448;-61
2023/06/14 12:52:09;;;;;;;4.95;2.90;;;26.10;37.50;;;;;;5065813;28;20642;-68
2023/06/14 12:54:39;;;;;;;6.73;3.47;;;26.20;37.70;;;;;;5066713;28;20098;-68
2023/06/14 12:57:06;;;;;;;5.97;2.40;;;26.30;37.30;;;;;;5069233;28;20044;-73